createdAt,value
2022-12-15T07:41:54.016Z,99817.42
2022-12-15T07:42:58.671Z,99819.09
2022-12-15T07:44:03.769Z,99820.50
2022-12-15T07:45:07.124Z,99812.16
2022-12-15T07:46:10.927Z,99813.56
2022-12-15T07:47:14.244Z,99823.11
2022-12-15T07:48:17.445Z,99826.13
2022-12-15T07:49:19.980Z,99816.49
2022-12-15T07:50:25.395Z,99817.20
2022-12-15T07:51:28.910Z,99813.98
2022-12-15T07:52:32.291Z,99817.89
2022-12-15T07:55:13.002Z,99814.23
2022-12-15T07:56:18.364Z,99819.22
2022-12-15T07:57:22.034Z,99827.83
2022-12-15T07:58:29.367Z,99823.50
2022-12-15T07:59:34.094Z,99822.52
2022-12-15T08:00:37.792Z,99827.20
2022-12-15T08:01:44.973Z,99835.36
2022-12-15T08:02:50.116Z,99831.70
2022-12-15T08:03:53.724Z,99827.43
2022-12-15T08:04:57.393Z,99837.06
2022-12-15T08:06:10.884Z,99823.69
2022-12-15T08:07:14.365Z,99829.14
2022-12-15T08:08:20.030Z,99835.43
2022-12-15T08:09:23.324Z,99828.33
2022-12-15T08:10:26.085Z,99822.12
2022-12-15T08:11:36.506Z,99828.50
2022-12-15T08:12:41.136Z,99837.48
2022-12-15T08:14:04.137Z,99828.61
2022-12-15T08:14:51.175Z,99829.59
2022-12-15T08:15:56.861Z,99833.78
2022-12-15T08:17:02.597Z,99836.89
2022-12-15T08:18:06.841Z,99833.73
2022-12-15T08:19:13.082Z,99833.16
2022-12-15T08:20:19.659Z,99841.58
2022-12-15T08:21:22.944Z,99837.84
2022-12-15T08:22:26.542Z,99846.58
2022-12-15T08:23:30.324Z,99834.99
2022-12-15T08:24:33.082Z,99831.06
2022-12-15T08:25:36.950Z,99833.23
2022-12-15T08:26:41.812Z,99836.21
2022-12-15T08:27:45.669Z,99830.86
2022-12-15T08:28:49.598Z,99832.34
2022-12-15T08:29:54.415Z,99828.47
2022-12-15T08:31:08.816Z,99828.30
2022-12-15T08:32:13.427Z,99827.61
2022-12-15T08:33:15.923Z,99835.27
2022-12-15T08:34:19.253Z,99827.92
2022-12-15T08:35:54.513Z,99824.49
2022-12-15T08:36:28.412Z,99828.25
2022-12-15T08:37:34.226Z,99833.02
2022-12-15T08:38:41.699Z,99826.69
2022-12-15T08:39:45.160Z,99824.51
2022-12-15T08:40:50.136Z,99824.94
2022-12-15T08:41:53.974Z,99823.03
2022-12-15T08:42:59.114Z,99824.46
2022-12-15T08:44:02.825Z,99825.52
2022-12-15T08:45:07.646Z,99831.83
2022-12-15T08:46:10.681Z,99827.78
2022-12-15T08:47:13.224Z,99826.75
2022-12-15T08:48:18.062Z,99836.05
2022-12-15T08:49:24.682Z,99841.53
2022-12-15T08:50:27.734Z,99834.24
2022-12-15T08:51:35.475Z,99825.97
2022-12-15T08:52:41.222Z,99832.78
2022-12-15T08:53:46.935Z,99833.48
2022-12-15T08:54:49.844Z,99835.47
2022-12-15T08:55:54.297Z,99831.07
2022-12-15T08:56:57.821Z,99824.03
2022-12-15T08:58:02.151Z,99822.88
2022-12-15T08:59:05.511Z,99821.97
2022-12-15T09:00:11.027Z,99829.21
2022-12-15T09:01:23.474Z,99828.96
2022-12-15T09:02:27.152Z,99827.77
2022-12-15T09:03:31.577Z,99835.09
2022-12-15T09:04:34.877Z,99819.88
2022-12-15T09:05:40.364Z,99824.45
2022-12-15T09:06:50.569Z,99834.44
2022-12-15T09:08:01.677Z,99832.05
2022-12-15T09:09:05.830Z,99832.66
2022-12-15T09:10:09.933Z,99831.60
2022-12-15T09:11:13.020Z,99834.27
2022-12-15T09:12:17.387Z,99823.48
2022-12-15T09:13:22.572Z,99831.89
2022-12-15T09:14:29.495Z,99823.91
2022-12-15T09:16:06.982Z,99830.59
2022-12-15T09:16:37.057Z,99817.56
2022-12-15T09:17:40.655Z,99815.05
2022-12-15T09:18:53.236Z,99815.65
2022-12-15T09:19:57.720Z,99817.95
2022-12-15T09:21:09.533Z,99814.54
2022-12-15T09:22:12.868Z,99820.67
2022-12-15T09:23:17.380Z,99816.06
2022-12-15T09:24:30.569Z,99817.72
2022-12-15T09:25:24.810Z,99822.73
2022-12-15T09:26:29.787Z,99821.83
2022-12-15T09:27:33.797Z,99816.09
2022-12-15T09:28:39.805Z,99816.45
2022-12-15T09:29:42.695Z,99811.42
2022-12-15T09:30:47.194Z,99810.67
2022-12-15T09:31:49.858Z,99801.86
2022-12-15T09:32:53.692Z,99811.58
2022-12-15T09:34:01.059Z,99817.11
2022-12-15T09:35:04.994Z,99812.28
2022-12-15T09:36:11.519Z,99816.81
2022-12-15T09:37:15.068Z,99818.36
2022-12-15T09:38:18.738Z,99816.61
2022-12-15T09:39:22.396Z,99814.04
2022-12-15T09:40:25.800Z,99819.42
2022-12-15T09:41:31.709Z,99806.70
2022-12-15T09:42:36.289Z,99810.06
2022-12-15T09:43:47.478Z,99811.14
2022-12-15T09:44:53.705Z,99814.83
2022-12-15T09:47:22.443Z,99801.74
2022-12-15T09:48:29.877Z,99816.13
2022-12-15T09:49:45.853Z,99811.64
2022-12-15T09:50:54.424Z,99805.60
2022-12-15T09:52:16.468Z,99813.59
2022-12-15T09:53:53.542Z,99803.13
2022-12-15T09:54:33.343Z,99803.56
2022-12-15T09:55:37.109Z,99801.58
2022-12-15T09:58:14.248Z,99795.77
2022-12-15T09:59:36.862Z,99799.07
2022-12-15T10:00:59.200Z,99790.53
2022-12-15T10:02:18.439Z,99786.90
2022-12-15T10:03:44.914Z,99793.78
2022-12-15T10:05:06.532Z,99797.16
2022-12-15T10:06:50.757Z,99794.91
2022-12-15T10:07:54.575Z,99798.87
2022-12-15T10:09:03.413Z,99799.44
2022-12-15T10:10:13.975Z,99793.23
2022-12-15T10:11:50.384Z,99802.93
2022-12-15T10:13:01.306Z,99802.93
2022-12-15T10:14:34.881Z,99809.70
2022-12-15T10:15:59.625Z,99816.92
2022-12-15T10:17:16.358Z,99809.13
2022-12-15T10:18:24.541Z,99808.38
2022-12-15T10:19:49.944Z,99809.48
2022-12-15T10:20:56.072Z,99811.05
2022-12-15T10:21:59.934Z,99812.76
2022-12-15T10:23:10.621Z,99796.28
2022-12-15T10:26:16.996Z,99800.28
2022-12-15T10:27:37.873Z,99800.91
2022-12-15T10:29:07.374Z,99799.37
2022-12-15T10:30:14.345Z,99802.22
2022-12-15T10:31:29.045Z,99801.48
2022-12-15T10:32:42.643Z,99808.88
2022-12-15T10:33:47.087Z,99802.63
2022-12-15T10:34:48.161Z,99798.63
2022-12-15T10:35:57.011Z,99800.56
2022-12-15T10:37:01.017Z,99794.65
2022-12-15T10:38:11.433Z,99808.61
2022-12-15T10:39:18.387Z,99798.86
2022-12-15T10:40:24.663Z,99796.00
2022-12-15T10:41:30.814Z,99802.73
2022-12-15T10:42:40.261Z,99795.04
2022-12-15T10:44:56.579Z,99798.63
2022-12-15T10:46:23.370Z,99797.43
2022-12-15T10:47:32.631Z,99789.24
2022-12-15T10:48:37.532Z,99797.84
2022-12-15T10:49:42.970Z,99795.22
2022-12-15T10:50:50.210Z,99788.55
2022-12-15T10:51:59.999Z,99792.70
2022-12-15T10:53:11.234Z,99788.55
2022-12-15T10:54:18.000Z,99792.24
2022-12-15T10:55:40.197Z,99787.73
2022-12-15T10:56:57.691Z,99788.12
2022-12-15T10:58:04.651Z,99789.90
2022-12-15T10:59:23.913Z,99791.33
2022-12-15T11:00:30.454Z,99798.24
2022-12-15T11:01:35.916Z,99787.64
2022-12-15T11:02:42.811Z,99794.25
2022-12-15T11:03:46.242Z,99788.21
2022-12-15T11:04:59.036Z,99783.31
2022-12-15T11:06:01.730Z,99806.90
2022-12-15T11:07:10.776Z,99785.59
2022-12-15T11:08:17.898Z,99787.80
2022-12-15T11:09:27.795Z,99788.89
2022-12-15T11:10:34.561Z,99785.35
2022-12-15T15:03:10.726Z,99794.13
2022-12-15T16:51:13.071Z,99996.75
2022-12-15T16:52:24.119Z,99996.28
2022-12-15T16:53:34.045Z,99992.47
2022-12-15T16:54:39.942Z,100000.84
2022-12-15T16:55:44.118Z,100001.48
2022-12-15T16:56:47.804Z,99998.12
2022-12-15T16:57:56.399Z,99990.20
2022-12-15T16:59:30.905Z,100001.64
2022-12-15T17:00:10.259Z,100007.69
2022-12-15T17:01:13.576Z,100008.70
2022-12-15T17:02:32.443Z,100006.03
2022-12-15T17:03:36.223Z,100011.31
2022-12-15T17:04:39.917Z,100005.12
2022-12-15T17:05:47.957Z,100011.11
2022-12-15T17:06:53.287Z,100016.61
2022-12-15T17:07:59.183Z,100008.59
2022-12-15T17:09:03.906Z,100008.75
2022-12-15T17:10:08.120Z,100011.37
2022-12-15T17:11:24.023Z,100011.37
2022-12-15T17:12:28.449Z,100016.55
2022-12-15T17:13:41.932Z,100012.02
2022-12-15T17:14:40.743Z,100010.09
2022-12-15T17:15:45.102Z,100009.61
2022-12-15T17:16:48.753Z,100010.30
2022-12-15T17:17:54.852Z,100017.65
2022-12-15T17:20:33.205Z,100013.97
2022-12-15T17:21:30.884Z,100018.32
2022-12-15T17:22:33.830Z,100018.91
2022-12-15T17:23:37.835Z,100023.19
2022-12-15T17:24:45.161Z,100027.58
2022-12-15T17:26:19.963Z,100020.89
2022-12-15T17:26:58.976Z,100024.95
2022-12-15T17:28:02.548Z,100027.39
2022-12-15T17:29:25.133Z,100027.63
2022-12-15T17:30:29.913Z,100024.31
2022-12-15T17:31:36.444Z,100030.90
2022-12-15T17:32:40.900Z,100019.52
2022-12-15T17:33:44.284Z,100021.84
2022-12-15T17:34:48.097Z,100026.93
2022-12-15T17:35:58.437Z,100023.19
2022-12-15T17:37:06.848Z,100027.34
2022-12-15T17:38:15.152Z,100019.53
2022-12-15T17:39:21.880Z,100014.84
2022-12-15T17:40:25.789Z,100019.83
2022-12-15T17:41:57.903Z,100022.34
2022-12-15T17:42:33.601Z,100024.61
2022-12-15T17:43:36.976Z,100028.94
2022-12-15T17:44:41.969Z,100032.52
2022-12-15T17:45:46.068Z,100028.89
2022-12-15T17:46:50.740Z,100023.80
2022-12-15T17:47:54.760Z,100031.51
2022-12-15T17:48:59.920Z,100026.27
2022-12-15T17:50:03.524Z,100030.55
2022-12-15T17:51:18.169Z,100033.27
2022-12-15T17:52:29.445Z,100032.42
2022-12-15T17:53:33.740Z,100028.38
2022-12-15T17:54:38.075Z,100031.05
2022-12-15T17:55:41.784Z,100024.77
2022-12-15T17:56:47.737Z,100034.23
2022-12-15T17:57:52.091Z,100028.09
2022-12-15T17:58:56.638Z,100032.63
2022-12-15T18:00:00.921Z,100024.50
2022-12-15T18:01:03.847Z,100032.36
2022-12-15T18:02:10.132Z,100036.59
2022-12-15T18:03:16.043Z,100035.55
2022-12-15T18:04:19.953Z,100037.66
2022-12-15T18:05:26.483Z,100040.13
2022-12-15T18:06:30.095Z,100041.23
2022-12-15T18:07:35.460Z,100041.13
2022-12-15T18:08:38.480Z,100031.16
2022-12-15T18:09:44.773Z,100035.20
2022-12-15T18:10:51.172Z,100041.08
2022-12-15T18:11:57.382Z,100027.02
2022-12-15T18:13:01.304Z,100027.02
2022-12-15T18:14:08.060Z,100042.69
2022-12-15T18:15:15.550Z,100038.75
2022-12-15T18:16:18.571Z,100037.39
2022-12-15T18:17:22.639Z,100039.92
2022-12-15T18:18:26.623Z,100032.92
2022-12-15T18:19:34.853Z,100037.45
2022-12-15T18:20:37.463Z,100041.53
2022-12-15T18:21:42.819Z,100044.05
2022-12-15T18:22:48.552Z,100035.48
2022-12-15T18:23:51.938Z,100044.75
2022-12-15T18:24:55.481Z,100045.60
2022-12-15T18:26:03.135Z,100045.60
2022-12-15T18:27:19.448Z,100049.98
2022-12-15T18:28:28.978Z,100051.80
2022-12-15T18:29:32.350Z,100048.38
2022-12-15T18:30:37.629Z,100051.80
2022-12-15T18:31:42.377Z,100044.05
2022-12-15T18:32:48.476Z,100045.81
2022-12-15T18:33:54.987Z,100051.00
2022-12-15T18:35:02.661Z,100045.70
2022-12-15T18:36:08.151Z,100049.98
2022-12-15T18:38:30.968Z,100048.99
2022-12-15T18:39:34.813Z,100049.08
2022-12-15T18:40:39.369Z,100045.35
2022-12-15T18:41:42.906Z,100055.78
2022-12-15T18:42:47.633Z,100049.63
2022-12-15T18:43:51.521Z,100060.01
2022-12-15T18:44:56.990Z,100057.39
2022-12-15T18:46:01.577Z,100063.03
2022-12-15T18:47:07.783Z,100064.31
2022-12-15T18:48:17.865Z,100071.11
2022-12-15T18:49:22.278Z,100061.33
2022-12-15T18:50:26.862Z,100065.52
2022-12-15T18:51:30.850Z,100067.98
2022-12-15T18:52:35.098Z,100070.66
2022-12-15T18:53:40.614Z,100067.87
2022-12-15T18:54:47.426Z,100068.09
2022-12-15T18:55:50.917Z,100071.81
2022-12-15T18:56:55.516Z,100076.05
2022-12-15T18:58:01.062Z,100072.47
2022-12-15T18:59:08.311Z,100077.61
2022-12-15T19:00:19.646Z,100074.37
2022-12-15T19:01:23.263Z,100074.37
2022-12-15T19:02:26.982Z,100075.84
2022-12-15T19:03:32.555Z,100082.30
2022-12-15T19:04:36.194Z,100082.95
2022-12-15T19:05:39.763Z,100084.56
2022-12-15T19:06:43.966Z,100086.27
2022-12-15T19:07:47.791Z,100086.22
2022-12-15T19:08:52.197Z,100087.02
2022-12-15T19:09:55.746Z,100093.73
2022-12-15T19:11:17.316Z,100090.31
2022-12-15T19:12:21.004Z,100091.00
2022-12-15T19:13:27.187Z,100087.31
2022-12-15T19:14:43.433Z,100098.66
2022-12-15T19:15:48.368Z,100085.16
2022-12-15T19:17:11.351Z,100097.45
2022-12-15T19:18:35.419Z,100102.41
2022-12-15T19:19:57.796Z,100098.92
2022-12-15T19:21:25.712Z,100099.54
2022-12-15T19:22:30.429Z,100091.57
2022-12-15T19:23:33.764Z,100091.57
2022-12-15T19:24:55.510Z,100104.89
2022-12-15T19:25:58.362Z,100102.27
2022-12-15T19:27:02.872Z,100108.45
2022-12-15T19:28:10.107Z,100096.41
2022-12-15T19:29:18.356Z,100089.16
2022-12-15T19:30:21.564Z,100100.34
2022-12-15T19:31:26.455Z,100092.32
2022-12-15T19:32:30.056Z,100099.89
2022-12-15T19:33:34.241Z,100094.70
2022-12-15T19:34:38.492Z,100091.80
2022-12-15T19:35:47.154Z,100098.59
2022-12-15T19:36:50.674Z,100098.59
2022-12-15T19:37:57.189Z,100095.23
2022-12-15T19:39:00.664Z,100091.80
2022-12-15T19:40:06.523Z,100103.20
2022-12-15T19:41:13.660Z,100110.32
2022-12-15T19:42:21.257Z,100115.91
2022-12-15T19:43:25.238Z,100105.48
2022-12-15T19:44:29.000Z,100105.48
2022-12-15T19:45:32.398Z,100110.56
2022-12-15T19:46:36.151Z,100114.81
2022-12-15T19:47:39.220Z,100117.28
2022-12-15T19:48:46.169Z,100120.75
2022-12-15T19:49:49.428Z,100122.47
2022-12-15T19:50:55.117Z,100117.73
2022-12-15T19:51:58.704Z,100122.68
2022-12-15T19:53:05.492Z,100123.18
2022-12-15T19:54:17.887Z,100117.32
2022-12-15T19:55:26.107Z,100126.84
2022-12-15T19:56:29.916Z,100134.91
2022-12-15T19:57:36.531Z,100129.41
2022-12-15T19:58:39.449Z,100133.95
2022-12-15T19:59:45.277Z,100139.14
2022-12-15T20:00:50.186Z,100134.31
2022-12-15T20:01:53.887Z,100135.27
2022-12-15T20:02:59.239Z,100147.01
2022-12-15T20:04:02.962Z,100143.34
2022-12-15T20:05:06.788Z,100142.72
2022-12-15T20:06:19.608Z,100156.84
2022-12-15T20:07:28.507Z,100146.59
2022-12-15T20:08:38.408Z,100147.45
2022-12-15T20:09:41.845Z,100142.83
2022-12-15T20:10:48.811Z,100139.71
2022-12-15T20:11:52.384Z,100130.99
2022-12-15T20:12:55.184Z,100134.21
2022-12-15T20:13:59.611Z,100143.53
2022-12-15T20:15:14.019Z,100138.19
2022-12-15T20:16:21.074Z,100142.39
2022-12-15T20:17:26.880Z,100132.86
2022-12-15T20:18:29.573Z,100147.92
2022-12-15T20:19:38.162Z,100153.00
2022-12-15T20:20:46.046Z,100154.42
2022-12-15T20:21:50.591Z,100165.30
2022-12-15T20:22:56.154Z,100171.94
2022-12-15T20:24:09.226Z,100166.31
2022-12-15T20:25:17.869Z,100176.75
2022-12-15T20:26:30.376Z,100176.41
2022-12-15T20:27:33.962Z,100181.55
2022-12-15T20:28:37.395Z,100186.03
2022-12-15T20:29:41.506Z,100177.42
2022-12-15T20:30:45.996Z,100171.97
2022-12-15T20:31:50.332Z,100182.06
2022-12-15T20:32:55.216Z,100194.17
2022-12-15T20:33:59.484Z,100179.99
2022-12-15T20:35:03.175Z,100184.33
2022-12-15T20:36:16.352Z,100183.23
2022-12-15T20:37:27.414Z,100171.83
2022-12-15T20:38:33.974Z,100176.11
2022-12-15T20:39:38.603Z,100182.16
2022-12-15T20:40:43.753Z,100183.07
2022-12-15T20:41:49.192Z,100194.47
2022-12-15T20:42:54.682Z,100194.47
2022-12-15T20:44:00.276Z,100191.74
2022-12-15T20:45:03.640Z,100199.56
2022-12-15T20:46:11.513Z,100193.41
2022-12-15T20:47:26.946Z,100199.72
2022-12-15T20:48:32.000Z,100202.45
2022-12-15T20:49:36.426Z,100211.88
2022-12-15T20:50:43.660Z,100204.80
2022-12-15T20:51:48.930Z,100196.94
2022-12-15T20:52:54.908Z,100199.41
2022-12-15T20:54:01.345Z,100211.81
2022-12-15T20:55:08.182Z,100214.44
2022-12-15T20:56:12.869Z,100198.70
2022-12-15T20:57:16.602Z,100206.63
2022-12-15T20:58:20.343Z,100199.41
2022-12-15T20:59:24.748Z,100199.41
2022-12-15T21:00:29.186Z,100193.77
2022-12-15T21:02:50.321Z,100177.62
2022-12-15T21:03:56.643Z,100182.22
2022-12-15T21:04:59.063Z,100182.86
2022-12-15T21:06:04.951Z,100176.76
2022-12-15T21:07:12.298Z,100181.25
2022-12-15T21:08:21.531Z,100175.09
2022-12-15T21:09:25.679Z,100167.13
2022-12-15T21:10:28.288Z,100170.71
2022-12-15T21:11:33.654Z,100167.13
2022-12-15T21:12:37.542Z,100174.80
2022-12-15T21:13:41.803Z,100172.98
2022-12-15T21:14:45.092Z,100173.03
2022-12-15T21:15:50.402Z,100178.17
2022-12-15T21:16:53.186Z,100173.73
2022-12-15T21:18:29.222Z,100185.13
2022-12-15T21:19:23.113Z,100192.20
2022-12-15T21:20:14.644Z,100193.91
2022-12-15T21:22:32.575Z,100193.50
2022-12-15T21:23:39.718Z,100194.88
2022-12-15T21:24:41.304Z,100192.20
2022-12-15T21:25:44.700Z,100200.02
2022-12-15T21:26:50.041Z,100197.74
2022-12-15T21:27:54.015Z,100198.36
2022-12-15T21:29:01.636Z,100198.36
2022-12-15T21:30:08.051Z,100192.20
2022-12-15T21:31:11.643Z,100194.77
2022-12-15T21:32:14.509Z,100199.96
2022-12-15T21:33:18.640Z,100206.12
2022-12-15T21:34:23.074Z,100206.06
2022-12-15T21:35:30.276Z,100221.75
2022-12-15T21:36:31.558Z,100233.10
2022-12-15T21:37:34.207Z,100232.25
2022-12-15T21:38:40.944Z,100236.80
2022-12-15T21:39:44.227Z,100221.50
2022-12-15T21:40:48.269Z,100202.73
2022-12-15T21:41:52.375Z,100186.14
2022-12-15T21:43:02.122Z,100166.83
2022-12-15T21:44:13.594Z,100174.28
2022-12-15T21:46:34.892Z,100188.89
2022-12-15T21:47:57.418Z,100199.67
2022-12-15T21:49:15.892Z,100198.77
2022-12-15T21:50:20.516Z,100213.73
2022-12-15T21:51:26.489Z,100212.95
2022-12-15T21:52:28.972Z,100227.01
2022-12-15T21:53:32.970Z,100228.77
2022-12-15T21:54:37.188Z,100230.44
2022-12-15T21:55:40.585Z,100224.44
2022-12-15T21:56:47.409Z,100219.95
2022-12-15T21:57:51.650Z,100227.69
2022-12-15T21:58:57.465Z,100245.94
2022-12-15T22:00:03.996Z,100241.88
2022-12-15T22:02:29.037Z,100263.38
2022-12-15T22:03:34.685Z,100245.40
2022-12-15T22:04:39.359Z,100251.69
2022-12-15T22:05:42.951Z,100241.88
2022-12-15T22:06:50.100Z,100244.45
2022-12-15T22:07:51.180Z,100262.56
2022-12-15T22:08:58.034Z,100247.75
2022-12-15T22:10:01.512Z,100244.94
2022-12-15T22:11:08.993Z,100253.51
2022-12-15T22:12:24.710Z,100256.05
2022-12-15T22:13:31.904Z,100254.23
2022-12-15T22:14:37.308Z,100253.38
2022-12-15T22:15:41.057Z,100255.42
2022-12-15T22:16:46.581Z,100255.42
2022-12-15T22:17:54.558Z,100255.14
2022-12-15T22:18:58.248Z,100252.47
2022-12-15T22:20:02.681Z,100250.56
2022-12-15T22:21:08.142Z,100260.91
2022-12-15T22:22:14.016Z,100263.47
2022-12-15T22:23:27.392Z,100275.82
2022-12-15T22:24:30.702Z,100266.20
2022-12-15T22:25:34.453Z,100273.91
2022-12-15T22:26:41.348Z,100269.49
2022-12-15T22:27:46.265Z,100269.39
2022-12-15T22:28:51.383Z,100277.06
2022-12-15T22:29:58.189Z,100283.21
2022-12-15T22:31:05.157Z,100272.62
2022-12-15T22:32:14.348Z,100270.20
2022-12-15T22:33:22.501Z,100281.34
2022-12-15T22:34:27.723Z,100283.16
2022-12-15T22:35:33.471Z,100285.88
2022-12-15T22:36:36.019Z,100294.66
2022-12-15T22:37:42.918Z,100290.17
2022-12-15T22:38:46.302Z,100299.75
2022-12-15T22:39:49.051Z,100291.13
2022-12-15T22:40:56.740Z,100296.38
2022-12-15T22:42:00.849Z,100297.13
2022-12-15T22:43:06.516Z,100293.66
2022-12-15T22:44:24.829Z,100290.08
2022-12-15T22:45:28.174Z,100295.14
2022-12-15T22:46:32.337Z,100303.05
2022-12-15T22:47:38.878Z,100300.28
2022-12-15T22:48:45.623Z,100292.52
2022-12-15T22:49:49.348Z,100295.09
2022-12-15T22:50:53.043Z,100289.84
2022-12-15T22:51:58.624Z,100286.59
2022-12-15T22:53:02.330Z,100293.61
2022-12-15T22:54:12.847Z,100287.70
2022-12-15T22:55:18.520Z,100292.09
2022-12-15T22:56:28.784Z,100288.78
2022-12-15T22:57:33.380Z,100291.23
2022-12-15T22:58:43.153Z,100293.70
2022-12-15T23:01:00.871Z,100287.59
